Megah Delapan — VRGA4 — position and weather

sailwx.info

Track history (hours):
 
Tides and Currents Weather Stations Pressure Air Temp Water Temp Dewpoint Dewpoint Depression Visibility Wind Speed Wind Dir Waves Ship Positions

Megah Delapan

Last reported at 2015-Aug-02 04:31 UTC. Time now 2015-Aug-30 01:39 UTC.
Position N 23°38' E 118°05'.
Warning: this ship's position is 27 days out of date.

Length 120 m; draft 7.8 m.

Type: Cargo ship. MMSI: 477639100.

Date/timePositionNaut miles runAvg speedWind from/ knotsBaromVisibWave heightAir tempDewpointWater temp
2015-Aug-02 04:31N 23°38' E 118°05'1111.6
2015-Aug-02 03:32N 23°45' E 118°15'1111.1
2015-Aug-02 02:34N 23°52' E 118°24'1110.8
2015-Aug-02 01:33N 23°59' E 118°33'1110.6
2015-Aug-02 00:32N 24°06' E 118°42'1111.0
2015-Aug-01 23:32N 24°13' E 118°51'1010.7
2015-Aug-01 22:34N 24°20' E 118°60'1010.3
2015-Aug-01 21:33N 24°26' E 119°09'3611.1
2015-Aug-01 18:17N 24°49' E 119°39'911.2
2015-Aug-01 17:29N 24°55' E 119°47'1111.3
2015-Aug-01 16:32N 25°02' E 119°56'31411.6
2015-Jul-31 13:31N 28°47' E 124°01'44411.9
2015-Jul-30 00:12N 33°53' E 130°17'  
Track history (hours):
 
Tides and Currents Weather Stations Pressure Air Temp Water Temp Dewpoint Dewpoint Depression Visibility Wind Speed Wind Dir Waves Ship Positions

Megah Delapan

Last reported at 2015-Aug-02 04:31 UTC. Time now 2015-Aug-30 01:39 UTC.
Position N 23°38' E 118°05'.
Warning: this ship's position is 27 days out of date.

Length 120 m; draft 7.8 m.

Type: Cargo ship. MMSI: 477639100.

Date/timePositionNaut miles runAvg speedWind from/ knotsBaromVisibWave heightAir tempDewpointWater temp
2015-Aug-02 04:31N 23°38' E 118°05'1111.6
2015-Aug-02 03:32N 23°45' E 118°15'1111.1
2015-Aug-02 02:34N 23°52' E 118°24'1110.8
2015-Aug-02 01:33N 23°59' E 118°33'1110.6
2015-Aug-02 00:32N 24°06' E 118°42'1111.0
2015-Aug-01 23:32N 24°13' E 118°51'1010.7
2015-Aug-01 22:34N 24°20' E 118°60'1010.3
2015-Aug-01 21:33N 24°26' E 119°09'3611.1
2015-Aug-01 18:17N 24°49' E 119°39'911.2
2015-Aug-01 17:29N 24°55' E 119°47'1111.3
2015-Aug-01 16:32N 25°02' E 119°56'31411.6
2015-Jul-31 13:31N 28°47' E 124°01'44411.9
2015-Jul-30 00:12N 33°53' E 130°17'  

Dump ship's entire track history